sensor_id;sensor_type;location;lat;lon;timestamp;pressure;altitude;pressure_sealevel;temperature;humidity
49529;BME280;35423;37.320;-121.762;2023-01-25T00:00:46;100976.82;;;38.73;4.64
49529;BME280;35423;37.320;-121.762;2023-01-25T00:03:16;100978.17;;;38.73;4.64
49529;BME280;35423;37.320;-121.762;2023-01-25T00:05:41;100977.55;;;38.86;4.60
49529;BME280;35423;37.320;-121.762;2023-01-25T00:08:11;100972.89;;;38.62;4.58
49529;BME280;35423;37.320;-121.762;2023-01-25T00:10:42;100973.61;;;38.44;4.69
49529;BME280;35423;37.320;-121.762;2023-01-25T00:13:28;100973.10;;;38.38;4.70
49529;BME280;35423;37.320;-121.762;2023-01-25T00:18:35;100971.85;;;38.14;4.79
49529;BME280;35423;37.320;-121.762;2023-01-25T00:20:49;100966.69;;;37.88;4.91
49529;BME280;35423;37.320;-121.762;2023-01-25T00:23:20;100961.88;;;37.38;5.11
49529;BME280;35423;37.320;-121.762;2023-01-25T00:25:50;100970.03;;;37.27;5.39
49529;BME280;35423;37.320;-121.762;2023-01-25T00:28:17;100968.17;;;36.80;5.59
49529;BME280;35423;37.320;-121.762;2023-01-25T00:30:42;100964.25;;;36.13;5.80
49529;BME280;35423;37.320;-121.762;2023-01-25T00:35:38;100963.26;;;35.68;6.21
49529;BME280;35423;37.320;-121.762;2023-01-25T00:40:34;100971.05;;;35.33;6.41
49529;BME280;35423;37.320;-121.762;2023-01-25T00:42:59;100971.15;;;35.47;6.49
49529;BME280;35423;37.320;-121.762;2023-01-25T00:46:10;100967.58;;;35.51;6.54
49529;BME280;35423;37.320;-121.762;2023-01-25T00:48:37;100964.32;;;35.17;6.57
49529;BME280;35423;37.320;-121.762;2023-01-25T00:51:06;100964.03;;;35.07;6.54
49529;BME280;35423;37.320;-121.762;2023-01-25T00:53:29;100964.63;;;35.14;6.67
49529;BME280;35423;37.320;-121.762;2023-01-25T00:55:57;100966.91;;;34.90;6.74
49529;BME280;35423;37.320;-121.762;2023-01-25T00:58:26;100965.69;;;34.45;6.76
49529;BME280;35423;37.320;-121.762;2023-01-25T01:00:53;100967.13;;;33.92;6.95
49529;BME280;35423;37.320;-121.762;2023-01-25T01:03:25;100961.01;;;33.51;7.23
49529;BME280;35423;37.320;-121.762;2023-01-25T01:08:23;100960.31;;;32.75;7.62
49529;BME280;35423;37.320;-121.762;2023-01-25T01:10:58;100960.69;;;32.28;7.87
49529;BME280;35423;37.320;-121.762;2023-01-25T01:13:26;100962.00;;;31.82;8.14
49529;BME280;35423;37.320;-121.762;2023-01-25T01:15:54;100958.96;;;31.41;8.34
49529;BME280;35423;37.320;-121.762;2023-01-25T01:18:23;100961.71;;;31.06;8.47
49529;BME280;35423;37.320;-121.762;2023-01-25T01:20:50;100958.63;;;30.88;8.56
49529;BME280;35423;37.320;-121.762;2023-01-25T01:23:18;100960.73;;;30.60;8.74
49529;BME280;35423;37.320;-121.762;2023-01-25T01:25:46;100963.63;;;30.07;8.96
49529;BME280;35423;37.320;-121.762;2023-01-25T01:28:11;100965.20;;;30.08;9.07
49529;BME280;35423;37.320;-121.762;2023-01-25T01:30:45;100968.21;;;29.65;9.31
49529;BME280;35423;37.320;-121.762;2023-01-25T01:33:13;100970.13;;;29.43;9.40
49529;BME280;35423;37.320;-121.762;2023-01-25T01:35:54;100966.60;;;29.25;9.49
49529;BME280;35423;37.320;-121.762;2023-01-25T01:38:26;100963.58;;;29.05;9.54
49529;BME280;35423;37.320;-121.762;2023-01-25T01:40:56;100962.75;;;28.83;9.63
49529;BME280;35423;37.320;-121.762;2023-01-25T01:43:26;100963.58;;;28.80;9.68
49529;BME280;35423;37.320;-121.762;2023-01-25T01:45:53;100964.96;;;28.95;9.70
49529;BME280;35423;37.320;-121.762;2023-01-25T01:48:30;100967.64;;;28.68;9.75
49529;BME280;35423;37.320;-121.762;2023-01-25T01:50:55;100966.12;;;28.27;9.97
49529;BME280;35423;37.320;-121.762;2023-01-25T01:53:21;100963.79;;;28.15;10.06
49529;BME280;35423;37.320;-121.762;2023-01-25T01:55:45;100960.33;;;28.35;10.19
49529;BME280;35423;37.320;-121.762;2023-01-25T01:58:14;100961.69;;;28.00;10.21
49529;BME280;35423;37.320;-121.762;2023-01-25T02:01:02;100961.55;;;28.30;10.05
49529;BME280;35423;37.320;-121.762;2023-01-25T02:03:38;100960.98;;;27.99;10.08
49529;BME280;35423;37.320;-121.762;2023-01-25T02:06:13;100967.27;;;28.14;10.14
49529;BME280;35423;37.320;-121.762;2023-01-25T02:08:46;100967.76;;;28.05;10.23
49529;BME280;35423;37.320;-121.762;2023-01-25T02:11:22;100967.76;;;27.68;10.20
49529;BME280;35423;37.320;-121.762;2023-01-25T02:13:50;100967.26;;;27.74;10.25
49529;BME280;35423;37.320;-121.762;2023-01-25T02:16:17;100971.62;;;27.98;10.20
49529;BME280;35423;37.320;-121.762;2023-01-25T02:18:46;100972.50;;;27.58;10.48
49529;BME280;35423;37.320;-121.762;2023-01-25T02:21:11;100978.77;;;27.41;10.48
49529;BME280;35423;37.320;-121.762;2023-01-25T02:23:50;100982.37;;;27.57;10.58
49529;BME280;35423;37.320;-121.762;2023-01-25T02:26:15;100988.17;;;27.36;10.85
49529;BME280;35423;37.320;-121.762;2023-01-25T02:28:44;100993.98;;;26.94;11.16
49529;BME280;35423;37.320;-121.762;2023-01-25T02:31:07;100995.73;;;26.29;11.62
49529;BME280;35423;37.320;-121.762;2023-01-25T02:33:35;100996.60;;;26.30;11.68
49529;BME280;35423;37.320;-121.762;2023-01-25T02:36:15;100995.53;;;26.11;11.65
49529;BME280;35423;37.320;-121.762;2023-01-25T02:38:40;100994.22;;;25.76;11.30
49529;BME280;35423;37.320;-121.762;2023-01-25T02:41:06;100990.04;;;25.71;11.10
49529;BME280;35423;37.320;-121.762;2023-01-25T02:43:34;100989.37;;;25.64;10.94
49529;BME280;35423;37.320;-121.762;2023-01-25T02:46:01;100990.03;;;25.69;11.00
49529;BME280;35423;37.320;-121.762;2023-01-25T02:48:25;100990.65;;;25.91;10.91
49529;BME280;35423;37.320;-121.762;2023-01-25T02:50:52;100988.94;;;25.64;10.97
49529;BME280;35423;37.320;-121.762;2023-01-25T02:53:25;100992.07;;;25.83;10.94
49529;BME280;35423;37.320;-121.762;2023-01-25T02:56:02;100991.30;;;26.04;10.94
49529;BME280;35423;37.320;-121.762;2023-01-25T02:58:32;100992.00;;;25.63;11.01
49529;BME280;35423;37.320;-121.762;2023-01-25T03:01:11;100991.75;;;25.52;11.11
49529;BME280;35423;37.320;-121.762;2023-01-25T03:03:40;100990.30;;;25.76;11.11
49529;BME280;35423;37.320;-121.762;2023-01-25T03:06:07;100991.62;;;25.65;11.14
49529;BME280;35423;37.320;-121.762;2023-01-25T03:08:36;100989.16;;;25.28;11.10
49529;BME280;35423;37.320;-121.762;2023-01-25T03:11:05;100988.93;;;25.47;11.20
49529;BME280;35423;37.320;-121.762;2023-01-25T03:13:30;100993.82;;;25.25;11.23
49529;BME280;35423;37.320;-121.762;2023-01-25T03:16:08;100993.34;;;25.18;11.17
49529;BME280;35423;37.320;-121.762;2023-01-25T03:18:36;100995.79;;;25.06;11.33
49529;BME280;35423;37.320;-121.762;2023-01-25T03:21:06;100999.34;;;25.32;11.31
49529;BME280;35423;37.320;-121.762;2023-01-25T03:23:40;101000.87;;;24.94;11.39
49529;BME280;35423;37.320;-121.762;2023-01-25T03:26:08;100999.06;;;24.46;11.37
49529;BME280;35423;37.320;-121.762;2023-01-25T03:28:35;101005.83;;;24.37;11.47
49529;BME280;35423;37.320;-121.762;2023-01-25T03:31:07;101011.73;;;24.51;11.49
49529;BME280;35423;37.320;-121.762;2023-01-25T03:33:33;101014.08;;;24.68;11.66
49529;BME280;35423;37.320;-121.762;2023-01-25T03:35:59;101014.70;;;24.43;11.80
49529;BME280;35423;37.320;-121.762;2023-01-25T03:38:34;101016.23;;;24.44;11.74
49529;BME280;35423;37.320;-121.762;2023-01-25T03:41:02;101022.63;;;24.42;11.81
49529;BME280;35423;37.320;-121.762;2023-01-25T03:43:33;101022.82;;;24.31;11.83
49529;BME280;35423;37.320;-121.762;2023-01-25T03:45:59;101023.32;;;24.19;11.75
49529;BME280;35423;37.320;-121.762;2023-01-25T03:48:25;101023.48;;;24.01;11.83
49529;BME280;35423;37.320;-121.762;2023-01-25T03:50:54;101027.59;;;23.83;11.74
49529;BME280;35423;37.320;-121.762;2023-01-25T03:53:19;101024.61;;;23.92;11.79
49529;BME280;35423;37.320;-121.762;2023-01-25T03:55:47;101025.13;;;23.88;11.84
49529;BME280;35423;37.320;-121.762;2023-01-25T03:58:12;101031.42;;;23.86;11.89
49529;BME280;35423;37.320;-121.762;2023-01-25T04:00:46;101029.82;;;23.62;11.99
49529;BME280;35423;37.320;-121.762;2023-01-25T04:03:18;101029.44;;;23.82;12.04
49529;BME280;35423;37.320;-121.762;2023-01-25T04:05:46;101029.55;;;23.57;11.93
49529;BME280;35423;37.320;-121.762;2023-01-25T04:08:12;101033.98;;;23.56;11.94
49529;BME280;35423;37.320;-121.762;2023-01-25T04:10:38;101033.23;;;23.45;11.88
49529;BME280;35423;37.320;-121.762;2023-01-25T04:13:10;101031.75;;;23.66;11.92
49529;BME280;35423;37.320;-121.762;2023-01-25T04:15:38;101032.81;;;23.45;12.02
49529;BME280;35423;37.320;-121.762;2023-01-25T04:18:12;101036.25;;;23.51;12.12
49529;BME280;35423;37.320;-121.762;2023-01-25T04:20:38;101038.09;;;23.13;12.43
49529;BME280;35423;37.320;-121.762;2023-01-25T04:23:11;101040.29;;;23.46;12.47
49529;BME280;35423;37.320;-121.762;2023-01-25T04:28:34;101043.54;;;22.76;13.15
49529;BME280;35423;37.320;-121.762;2023-01-25T04:31:01;101046.82;;;22.89;13.21
49529;BME280;35423;37.320;-121.762;2023-01-25T04:33:28;101045.65;;;22.79;13.25
49529;BME280;35423;37.320;-121.762;2023-01-25T04:35:53;101042.87;;;22.68;13.30
49529;BME280;35423;37.320;-121.762;2023-01-25T04:38:19;101045.45;;;22.86;13.25
49529;BME280;35423;37.320;-121.762;2023-01-25T04:40:49;101049.73;;;22.59;13.19
49529;BME280;35423;37.320;-121.762;2023-01-25T04:43:24;101052.17;;;22.48;13.27
49529;BME280;35423;37.320;-121.762;2023-01-25T04:46:07;101053.34;;;22.62;13.25
49529;BME280;35423;37.320;-121.762;2023-01-25T04:48:34;101050.94;;;22.03;13.27
49529;BME280;35423;37.320;-121.762;2023-01-25T04:50:59;101053.42;;;22.45;13.33
49529;BME280;35423;37.320;-121.762;2023-01-25T04:53:26;101051.13;;;22.37;13.42
49529;BME280;35423;37.320;-121.762;2023-01-25T04:55:52;101050.68;;;22.30;13.44
49529;BME280;35423;37.320;-121.762;2023-01-25T04:58:30;101052.47;;;22.27;13.57
49529;BME280;35423;37.320;-121.762;2023-01-25T05:01:03;101053.94;;;22.20;13.61
49529;BME280;35423;37.320;-121.762;2023-01-25T05:03:32;101057.92;;;22.09;13.72
49529;BME280;35423;37.320;-121.762;2023-01-25T05:05:57;101054.75;;;22.01;13.78
49529;BME280;35423;37.320;-121.762;2023-01-25T05:08:22;101055.57;;;21.94;13.85
49529;BME280;35423;37.320;-121.762;2023-01-25T05:10:55;101057.54;;;21.82;13.88
49529;BME280;35423;37.320;-121.762;2023-01-25T05:13:31;101059.83;;;21.90;13.95
49529;BME280;35423;37.320;-121.762;2023-01-25T05:15:58;101061.74;;;21.53;14.00
49529;BME280;35423;37.320;-121.762;2023-01-25T05:18:30;101063.56;;;21.91;14.10
49529;BME280;35423;37.320;-121.762;2023-01-25T05:20:56;101066.34;;;21.52;14.19
49529;BME280;35423;37.320;-121.762;2023-01-25T05:23:25;101069.09;;;21.21;14.27
49529;BME280;35423;37.320;-121.762;2023-01-25T05:25:51;101070.46;;;21.37;14.32
49529;BME280;35423;37.320;-121.762;2023-01-25T05:28:19;101070.86;;;21.51;14.40
49529;BME280;35423;37.320;-121.762;2023-01-25T05:30:50;101067.70;;;21.36;14.51
49529;BME280;35423;37.320;-121.762;2023-01-25T05:33:21;101068.20;;;21.23;14.60
49529;BME280;35423;37.320;-121.762;2023-01-25T05:35:57;101071.80;;;21.15;14.66
49529;BME280;35423;37.320;-121.762;2023-01-25T05:38:29;101070.22;;;21.14;14.66
49529;BME280;35423;37.320;-121.762;2023-01-25T05:40:58;101072.47;;;21.07;14.66
49529;BME280;35423;37.320;-121.762;2023-01-25T05:43:28;101073.07;;;20.69;14.69
49529;BME280;35423;37.320;-121.762;2023-01-25T05:45:54;101077.95;;;20.80;14.88
49529;BME280;35423;37.320;-121.762;2023-01-25T05:48:20;101079.92;;;20.69;14.90
49529;BME280;35423;37.320;-121.762;2023-01-25T05:50:56;101081.99;;;20.66;14.94
49529;BME280;35423;37.320;-121.762;2023-01-25T05:53:26;101079.52;;;20.61;14.99
49529;BME280;35423;37.320;-121.762;2023-01-25T05:55:55;101076.42;;;20.79;14.99
49529;BME280;35423;37.320;-121.762;2023-01-25T05:58:34;101082.06;;;20.74;15.02
49529;BME280;35423;37.320;-121.762;2023-01-25T06:01:08;101086.07;;;20.64;15.11
49529;BME280;35423;37.320;-121.762;2023-01-25T06:03:31;101086.49;;;20.51;15.18
49529;BME280;35423;37.320;-121.762;2023-01-25T06:06:03;101089.86;;;20.25;15.15
49529;BME280;35423;37.320;-121.762;2023-01-25T06:08:32;101092.59;;;20.37;15.16
49529;BME280;35423;37.320;-121.762;2023-01-25T06:11:04;101090.01;;;20.26;15.20
49529;BME280;35423;37.320;-121.762;2023-01-25T06:13:25;101092.67;;;20.17;15.29
49529;BME280;35423;37.320;-121.762;2023-01-25T06:15:55;101091.97;;;20.11;15.28
49529;BME280;35423;37.320;-121.762;2023-01-25T06:18:25;101092.67;;;20.26;15.47
49529;BME280;35423;37.320;-121.762;2023-01-25T06:20:50;101092.92;;;19.86;15.53
49529;BME280;35423;37.320;-121.762;2023-01-25T06:23:28;101097.16;;;19.72;15.65
49529;BME280;35423;37.320;-121.762;2023-01-25T06:26:05;101093.54;;;19.94;15.67
49529;BME280;35423;37.320;-121.762;2023-01-25T06:28:30;101092.96;;;19.72;15.84
49529;BME280;35423;37.320;-121.762;2023-01-25T06:30:55;101100.05;;;19.67;15.87
49529;BME280;35423;37.320;-121.762;2023-01-25T06:33:23;101102.05;;;19.62;15.97
49529;BME280;35423;37.320;-121.762;2023-01-25T06:35:48;101109.03;;;19.50;16.06
49529;BME280;35423;37.320;-121.762;2023-01-25T06:38:22;101111.61;;;19.46;16.00
49529;BME280;35423;37.320;-121.762;2023-01-25T06:40:51;101114.69;;;19.36;16.10
49529;BME280;35423;37.320;-121.762;2023-01-25T06:43:23;101110.83;;;19.44;16.13
49529;BME280;35423;37.320;-121.762;2023-01-25T06:45:45;101108.85;;;19.66;16.07
49529;BME280;35423;37.320;-121.762;2023-01-25T06:48:26;101110.62;;;19.15;16.16
49529;BME280;35423;37.320;-121.762;2023-01-25T06:50:55;101108.46;;;19.32;16.20
49529;BME280;35423;37.320;-121.762;2023-01-25T06:53:26;101109.69;;;19.22;16.27
49529;BME280;35423;37.320;-121.762;2023-01-25T06:55:59;101112.39;;;19.43;16.20
49529;BME280;35423;37.320;-121.762;2023-01-25T06:58:25;101113.59;;;19.41;16.21
49529;BME280;35423;37.320;-121.762;2023-01-25T07:00:50;101109.18;;;19.40;16.16
49529;BME280;35423;37.320;-121.762;2023-01-25T07:03:18;101115.01;;;19.09;16.31
49529;BME280;35423;37.320;-121.762;2023-01-25T07:05:42;101117.39;;;19.06;16.44
49529;BME280;35423;37.320;-121.762;2023-01-25T07:08:14;101123.15;;;18.97;16.48
49529;BME280;35423;37.320;-121.762;2023-01-25T07:10:54;101122.65;;;18.99;16.45
49529;BME280;35423;37.320;-121.762;2023-01-25T07:13:16;101127.00;;;18.94;16.46
49529;BME280;35423;37.320;-121.762;2023-01-25T07:15:43;101123.11;;;18.75;16.72
49529;BME280;35423;37.320;-121.762;2023-01-25T07:18:10;101121.40;;;18.89;16.81
49529;BME280;35423;37.320;-121.762;2023-01-25T07:20:43;101128.11;;;18.32;16.79
49529;BME280;35423;37.320;-121.762;2023-01-25T07:23:09;101127.98;;;18.50;16.78
49529;BME280;35423;37.320;-121.762;2023-01-25T07:25:34;101125.01;;;18.41;16.82
49529;BME280;35423;37.320;-121.762;2023-01-25T07:28:01;101126.79;;;18.65;16.78
49529;BME280;35423;37.320;-121.762;2023-01-25T07:30:37;101124.96;;;18.61;16.73
49529;BME280;35423;37.320;-121.762;2023-01-25T07:33:04;101123.23;;;18.28;16.81
49529;BME280;35423;37.320;-121.762;2023-01-25T07:35:41;101118.98;;;18.19;16.86
49529;BME280;35423;37.320;-121.762;2023-01-25T07:38:08;101117.21;;;18.18;16.91
49529;BME280;35423;37.320;-121.762;2023-01-25T07:40:41;101116.75;;;18.46;16.90
49529;BME280;35423;37.320;-121.762;2023-01-25T07:43:09;101116.45;;;18.59;17.02
49529;BME280;35423;37.320;-121.762;2023-01-25T07:45:34;101116.79;;;18.51;17.04
49529;BME280;35423;37.320;-121.762;2023-01-25T07:48:09;101115.32;;;18.21;17.11
49529;BME280;35423;37.320;-121.762;2023-01-25T07:50:36;101115.87;;;18.39;17.05
49529;BME280;35423;37.320;-121.762;2023-01-25T07:53:03;101117.52;;;17.83;17.13
49529;BME280;35423;37.320;-121.762;2023-01-25T07:55:33;101118.75;;;18.06;17.11
49529;BME280;35423;37.320;-121.762;2023-01-25T07:57:59;101118.16;;;18.19;17.17
49529;BME280;35423;37.320;-121.762;2023-01-25T08:00:25;101113.47;;;18.08;17.33
49529;BME280;35423;37.320;-121.762;2023-01-25T08:02:51;101111.29;;;18.01;17.43
49529;BME280;35423;37.320;-121.762;2023-01-25T08:05:28;101109.21;;;18.15;17.56
49529;BME280;35423;37.320;-121.762;2023-01-25T08:07:54;101110.52;;;17.88;17.84
49529;BME280;35423;37.320;-121.762;2023-01-25T08:10:27;101111.01;;;17.38;18.11
49529;BME280;35423;37.320;-121.762;2023-01-25T08:12:57;101110.02;;;17.50;17.99
49529;BME280;35423;37.320;-121.762;2023-01-25T08:15:26;101112.83;;;17.56;18.01
49529;BME280;35423;37.320;-121.762;2023-01-25T08:18:01;101109.51;;;17.85;17.96
49529;BME280;35423;37.320;-121.762;2023-01-25T08:20:30;101112.08;;;17.91;18.19
49529;BME280;35423;37.320;-121.762;2023-01-25T08:22:58;101112.85;;;17.67;18.48
49529;BME280;35423;37.320;-121.762;2023-01-25T08:25:25;101116.04;;;16.85;18.54
49529;BME280;35423;37.320;-121.762;2023-01-25T08:27:55;101116.24;;;16.96;18.59
49529;BME280;35423;37.320;-121.762;2023-01-25T08:30:34;101119.21;;;17.07;18.51
49529;BME280;35423;37.320;-121.762;2023-01-25T08:33:03;101114.99;;;17.35;18.57
49529;BME280;35423;37.320;-121.762;2023-01-25T08:35:36;101113.85;;;17.12;18.49
49529;BME280;35423;37.320;-121.762;2023-01-25T08:38:05;101110.53;;;17.54;18.58
49529;BME280;35423;37.320;-121.762;2023-01-25T08:40:36;101110.86;;;16.97;18.77
49529;BME280;35423;37.320;-121.762;2023-01-25T08:43:02;101109.22;;;16.94;18.76
49529;BME280;35423;37.320;-121.762;2023-01-25T08:45:28;101106.17;;;17.37;18.80
49529;BME280;35423;37.320;-121.762;2023-01-25T08:47:58;101104.90;;;17.09;18.98
49529;BME280;35423;37.320;-121.762;2023-01-25T08:50:30;101107.66;;;16.55;19.12
49529;BME280;35423;37.320;-121.762;2023-01-25T08:53:01;101108.48;;;17.12;19.06
49529;BME280;35423;37.320;-121.762;2023-01-25T08:55:37;101104.46;;;17.14;19.07
49529;BME280;35423;37.320;-121.762;2023-01-25T08:58:12;101101.55;;;17.13;19.17
49529;BME280;35423;37.320;-121.762;2023-01-25T09:00:49;101102.56;;;16.89;19.17
49529;BME280;35423;37.320;-121.762;2023-01-25T09:03:11;101103.00;;;17.12;19.17
49529;BME280;35423;37.320;-121.762;2023-01-25T09:05:41;101104.28;;;16.86;19.21
49529;BME280;35423;37.320;-121.762;2023-01-25T09:08:10;101106.87;;;16.77;19.43
49529;BME280;35423;37.320;-121.762;2023-01-25T09:10:35;101110.27;;;16.97;19.36
49529;BME280;35423;37.320;-121.762;2023-01-25T09:13:01;101114.24;;;16.96;19.39
49529;BME280;35423;37.320;-121.762;2023-01-25T09:15:32;101113.15;;;16.92;19.41
49529;BME280;35423;37.320;-121.762;2023-01-25T09:18:07;101115.40;;;16.87;19.48
49529;BME280;35423;37.320;-121.762;2023-01-25T09:20:33;101113.93;;;16.84;19.48
49529;BME280;35423;37.320;-121.762;2023-01-25T09:23:00;101117.43;;;17.27;19.55
49529;BME280;35423;37.320;-121.762;2023-01-25T09:25:27;101116.89;;;16.54;19.73
49529;BME280;35423;37.320;-121.762;2023-01-25T09:28:00;101113.53;;;16.58;19.73
49529;BME280;35423;37.320;-121.762;2023-01-25T09:30:29;101115.53;;;16.60;19.72
49529;BME280;35423;37.320;-121.762;2023-01-25T09:32:59;101119.32;;;16.82;19.75
49529;BME280;35423;37.320;-121.762;2023-01-25T09:35:31;101117.54;;;16.57;19.77
49529;BME280;35423;37.320;-121.762;2023-01-25T09:37:56;101117.33;;;16.55;19.85
49529;BME280;35423;37.320;-121.762;2023-01-25T09:40:40;101116.97;;;16.48;19.98
49529;BME280;35423;37.320;-121.762;2023-01-25T09:43:05;101117.17;;;16.45;20.03
49529;BME280;35423;37.320;-121.762;2023-01-25T09:45:32;101116.75;;;16.43;20.00
49529;BME280;35423;37.320;-121.762;2023-01-25T09:48:14;101112.57;;;16.42;20.01
49529;BME280;35423;37.320;-121.762;2023-01-25T09:50:35;101110.86;;;16.35;20.14
49529;BME280;35423;37.320;-121.762;2023-01-25T09:55:33;101112.56;;;16.33;20.21
49529;BME280;35423;37.320;-121.762;2023-01-25T09:58:02;101113.23;;;16.52;20.24
49529;BME280;35423;37.320;-121.762;2023-01-25T10:00:31;101113.05;;;16.53;20.19
49529;BME280;35423;37.320;-121.762;2023-01-25T10:02:59;101117.59;;;16.49;20.23
49529;BME280;35423;37.320;-121.762;2023-01-25T10:05:26;101118.07;;;16.23;20.27
49529;BME280;35423;37.320;-121.762;2023-01-25T10:07:56;101125.64;;;16.41;20.33
49529;BME280;35423;37.320;-121.762;2023-01-25T10:10:18;101124.07;;;16.37;20.41
49529;BME280;35423;37.320;-121.762;2023-01-25T10:12:40;101123.47;;;16.58;20.46
49529;BME280;35423;37.320;-121.762;2023-01-25T10:15:19;101125.80;;;16.03;20.58
49529;BME280;35423;37.320;-121.762;2023-01-25T10:17:37;101127.11;;;16.23;20.66
49529;BME280;35423;37.320;-121.762;2023-01-25T10:20:14;101125.35;;;15.97;20.78
49529;BME280;35423;37.320;-121.762;2023-01-25T10:22:37;101123.41;;;15.85;21.04
49529;BME280;35423;37.320;-121.762;2023-01-25T10:27:38;101124.90;;;16.04;21.07
49529;BME280;35423;37.320;-121.762;2023-01-25T10:30:01;101123.07;;;16.02;21.17
49529;BME280;35423;37.320;-121.762;2023-01-25T10:32:35;101121.84;;;15.74;21.24
49529;BME280;35423;37.320;-121.762;2023-01-25T10:37:31;101121.23;;;15.88;21.43
49529;BME280;35423;37.320;-121.762;2023-01-25T10:40:01;101112.92;;;15.82;21.48
49529;BME280;35423;37.320;-121.762;2023-01-25T10:42:28;101106.38;;;15.75;21.54
49529;BME280;35423;37.320;-121.762;2023-01-25T10:44:56;101100.92;;;15.98;21.57
49529;BME280;35423;37.320;-121.762;2023-01-25T10:47:26;101101.36;;;15.69;21.55
49529;BME280;35423;37.320;-121.762;2023-01-25T10:49:51;101096.33;;;15.91;21.56
49529;BME280;35423;37.320;-121.762;2023-01-25T10:52:20;101093.59;;;15.81;21.77
49529;BME280;35423;37.320;-121.762;2023-01-25T10:55:06;101097.10;;;15.80;21.66
49529;BME280;35423;37.320;-121.762;2023-01-25T10:57:25;101097.85;;;15.71;21.82
49529;BME280;35423;37.320;-121.762;2023-01-25T10:59:52;101095.80;;;15.69;21.86
49529;BME280;35423;37.320;-121.762;2023-01-25T11:04:45;101099.77;;;15.69;21.81
49529;BME280;35423;37.320;-121.762;2023-01-25T11:07:25;101102.95;;;15.66;21.84
49529;BME280;35423;37.320;-121.762;2023-01-25T11:09:40;101104.64;;;15.33;21.90
49529;BME280;35423;37.320;-121.762;2023-01-25T11:14:33;101109.49;;;15.52;21.94
49529;BME280;35423;37.320;-121.762;2023-01-25T11:16:58;101109.89;;;15.43;22.00
49529;BME280;35423;37.320;-121.762;2023-01-25T11:19:34;101109.26;;;15.36;22.02
49529;BME280;35423;37.320;-121.762;2023-01-25T11:21:56;101107.65;;;15.41;21.86
49529;BME280;35423;37.320;-121.762;2023-01-25T11:24:26;101108.10;;;15.08;22.05
49529;BME280;35423;37.320;-121.762;2023-01-25T11:26:49;101107.75;;;15.30;21.95
49529;BME280;35423;37.320;-121.762;2023-01-25T11:29:23;101107.39;;;15.21;22.07
49529;BME280;35423;37.320;-121.762;2023-01-25T11:31:53;101105.63;;;15.42;22.07
49529;BME280;35423;37.320;-121.762;2023-01-25T11:34:29;101099.83;;;15.16;22.14
49529;BME280;35423;37.320;-121.762;2023-01-25T11:37:08;101094.93;;;15.10;22.22
49529;BME280;35423;37.320;-121.762;2023-01-25T11:39:41;101085.59;;;15.02;22.35
49529;BME280;35423;37.320;-121.762;2023-01-25T11:42:04;101085.08;;;15.44;22.37
49529;BME280;35423;37.320;-121.762;2023-01-25T11:46:58;101084.38;;;15.14;22.45
49529;BME280;35423;37.320;-121.762;2023-01-25T11:49:31;101082.92;;;15.13;22.47
49529;BME280;35423;37.320;-121.762;2023-01-25T11:52:00;101083.80;;;15.11;22.48
49529;BME280;35423;37.320;-121.762;2023-01-25T11:54:28;101084.22;;;15.07;22.60
49529;BME280;35423;37.320;-121.762;2023-01-25T11:56:56;101085.23;;;14.81;22.77
49529;BME280;35423;37.320;-121.762;2023-01-25T11:59:45;101087.58;;;15.01;22.79
49529;BME280;35423;37.320;-121.762;2023-01-25T12:02:04;101090.63;;;14.96;22.84
49529;BME280;35423;37.320;-121.762;2023-01-25T12:07:17;101086.07;;;15.14;22.91
49529;BME280;35423;37.320;-121.762;2023-01-25T12:09:40;101086.95;;;15.11;22.90
49529;BME280;35423;37.320;-121.762;2023-01-25T12:12:08;101086.47;;;14.80;23.25
49529;BME280;35423;37.320;-121.762;2023-01-25T12:14:34;101083.83;;;14.76;23.10
49529;BME280;35423;37.320;-121.762;2023-01-25T12:17:05;101080.10;;;14.74;23.13
49529;BME280;35423;37.320;-121.762;2023-01-25T12:19:40;101078.26;;;14.92;23.10
49529;BME280;35423;37.320;-121.762;2023-01-25T12:22:04;101074.44;;;14.47;22.97
49529;BME280;35423;37.320;-121.762;2023-01-25T12:24:32;101071.44;;;14.86;23.00
49529;BME280;35423;37.320;-121.762;2023-01-25T12:26:57;101075.95;;;14.86;22.96
49529;BME280;35423;37.320;-121.762;2023-01-25T12:29:23;101085.52;;;14.31;23.17
49529;BME280;35423;37.320;-121.762;2023-01-25T12:31:44;101089.90;;;14.76;23.12
49529;BME280;35423;37.320;-121.762;2023-01-25T12:34:13;101091.52;;;14.52;23.14
49529;BME280;35423;37.320;-121.762;2023-01-25T12:36:37;101094.47;;;14.67;23.34
49529;BME280;35423;37.320;-121.762;2023-01-25T12:39:09;101094.54;;;14.19;23.28
49529;BME280;35423;37.320;-121.762;2023-01-25T12:41:37;101089.71;;;14.61;23.29
49529;BME280;35423;37.320;-121.762;2023-01-25T12:44:05;101091.33;;;14.55;23.37
49529;BME280;35423;37.320;-121.762;2023-01-25T12:46:30;101095.81;;;14.48;23.42
49529;BME280;35423;37.320;-121.762;2023-01-25T12:48:54;101094.92;;;14.17;23.47
49529;BME280;35423;37.320;-121.762;2023-01-25T12:51:34;101096.98;;;14.18;23.38
49529;BME280;35423;37.320;-121.762;2023-01-25T12:53:51;101093.76;;;14.37;23.36
49529;BME280;35423;37.320;-121.762;2023-01-25T12:56:35;101091.28;;;14.59;23.42
49529;BME280;35423;37.320;-121.762;2023-01-25T12:58:55;101091.83;;;14.33;23.35
49529;BME280;35423;37.320;-121.762;2023-01-25T13:01:24;101088.98;;;14.32;23.30